Time;durP1;ratioP1;P1;durP2;ratioP2;P2;SDS_P1;SDS_P2;PMS_P1;PMS_P2;Temp;Humidity;BMP_temperature;BMP_pressure;BME280_temperature;BME280_humidity;BME280_pressure;Samples;Min_cycle;Max_cycle;Signal;HPM_P1;HPM_P2
2021/03/02 00:00:16;;;;;;;61.75;34.15;;;;;;;2.74;89.81;102177.75;1677879;83;25967;-70
2021/03/02 00:02:45;;;;;;;61.90;36.65;;;;;;;2.73;89.84;102184.27;1678417;83;25878;-70
2021/03/02 00:05:15;;;;;;;62.30;37.83;;;;;;;2.71;89.87;102171.90;1678967;83;25774;-70
2021/03/02 00:07:42;;;;;;;62.60;37.90;;;;;;;2.69;89.90;102175.83;1678749;83;25952;-70
2021/03/02 00:10:12;;;;;;;67.00;39.05;;;;;;;2.68;89.97;102181.08;1677946;83;25612;-73
2021/03/02 00:12:40;;;;;;;59.00;35.43;;;;;;;2.65;90.07;102172.55;1677492;83;25854;-72
2021/03/02 00:15:11;;;;;;;65.30;38.35;;;;;;;2.64;90.10;102177.77;1677433;83;25790;-72
2021/03/02 00:17:53;;;;;;;69.97;41.20;;;;;;;2.57;90.13;102169.48;1677610;83;25884;-70
2021/03/02 00:20:24;;;;;;;57.83;32.38;;;;;;;2.65;90.08;102180.30;1676208;83;25856;-70
2021/03/02 00:23:05;;;;;;;63.13;37.98;;;;;;;2.67;90.29;102180.22;1678496;83;25350;-70
2021/03/02 00:25:42;;;;;;;61.63;37.45;;;;;;;2.59;90.01;102159.94;1678853;83;25833;-69
2021/03/02 00:28:10;;;;;;;63.42;38.48;;;;;;;2.59;90.01;102159.94;1677352;83;26471;-70
2021/03/02 00:30:39;;;;;;;66.45;38.23;;;;;;;2.73;90.08;102173.94;1676812;84;25993;-72
2021/03/02 00:33:09;;;;;;;60.58;37.83;;;;;;;2.72;89.96;102179.56;1677443;83;25775;-69
2021/03/02 00:35:41;;;;;;;65.42;40.00;;;;;;;2.74;90.01;102177.75;1678799;83;25717;-70
2021/03/02 00:38:07;;;;;;;62.70;37.88;;;;;;;2.75;90.01;102177.30;1678494;83;25751;-72
2021/03/02 00:40:34;;;;;;;63.25;38.15;;;;;;;2.74;90.08;102179.05;1676291;83;25824;-72
2021/03/02 00:43:00;;;;;;;61.53;36.50;;;;;;;2.74;89.97;102181.63;1673576;84;25809;-73
2021/03/02 00:45:27;;;;;;;66.60;40.98;;;;;;;2.73;90.12;102172.22;1683475;83;25833;-72
2021/03/02 00:47:54;;;;;;;70.72;38.65;;;;;;;2.70;90.37;102172.36;1693666;83;25946;-73
2021/03/02 00:50:24;;;;;;;55.15;33.35;;;;;;;2.70;90.37;102172.36;1674043;84;25764;-70
2021/03/02 00:52:51;;;;;;;53.55;29.10;;;;;;;2.70;90.18;102159.45;1673548;84;25929;-70
2021/03/02 00:55:20;;;;;;;48.30;27.52;;;;;;;2.70;90.07;102146.97;1696031;83;25789;-70
2021/03/02 00:57:47;;;;;;;57.10;31.27;;;;;;;2.48;89.76;102111.80;1669330;85;25875;-70
2021/03/02 01:00:16;;;;;;;49.13;31.10;;;;;;;2.48;89.76;102111.80;1673837;84;26410;-72
2021/03/02 01:02:43;;;;;;;48.55;28.38;;;;;;;2.56;89.93;102121.33;1675093;83;25880;-72
2021/03/02 01:05:10;;;;;;;50.25;28.95;;;;;;;2.54;90.05;102120.58;1673904;84;25848;-72
2021/03/02 01:07:38;;;;;;;45.83;28.85;;;;;;;2.41;90.28;102103.52;1673727;84;25792;-72
2021/03/02 01:10:07;;;;;;;48.83;24.90;;;;;;;2.41;90.28;102103.52;1694396;83;25951;-70
2021/03/02 01:12:34;;;;;;;45.58;28.40;;;;;;;2.53;90.27;102116.31;1674785;84;25988;-70
2021/03/02 01:15:05;;;;;;;54.80;31.75;;;;;;;2.51;90.23;102112.13;1672849;84;25783;-70
2021/03/02 01:17:31;;;;;;;42.53;24.47;;;;;;;2.52;90.05;102106.08;1674708;84;25723;-72
2021/03/02 01:19:58;;;;;;;52.83;31.55;;;;;;;2.49;90.35;102108.34;1686083;84;26229;-72
2021/03/02 01:22:24;;;;;;;47.08;27.17;;;;;;;2.49;90.35;102113.50;1693031;83;25871;-72
2021/03/02 01:24:50;;;;;;;54.05;30.97;;;;;;;2.40;90.45;102099.27;1665210;84;25724;-72
2021/03/02 01:27:17;;;;;;;49.70;28.27;;;;;;;2.47;90.15;102102.40;1694298;83;25757;-73
2021/03/02 01:29:43;;;;;;;45.00;27.37;;;;;;;2.52;90.40;102102.20;1695194;83;26515;-75
2021/03/02 01:32:10;;;;;;;53.60;28.52;;;;;;;2.54;90.45;102107.67;1694640;83;25910;-75
2021/03/02 01:34:36;;;;;;;47.53;27.55;;;;;;;2.55;90.44;102109.80;1693600;83;25726;-75
2021/03/02 01:37:02;;;;;;;47.60;28.83;;;;;;;2.53;90.56;102099.53;1674486;84;25750;-75
2021/03/02 01:39:30;;;;;;;59.18;33.28;;;;;;;2.51;90.65;102101.37;1648319;84;25754;-74
2021/03/02 01:41:58;;;;;;;54.30;29.15;;;;;;;2.51;90.62;102097.92;1680205;83;26081;-75
2021/03/02 01:44:29;;;;;;;60.23;34.65;;;;;;;2.51;90.94;102095.34;1691017;83;25851;-75
2021/03/02 01:46:57;;;;;;;52.15;30.10;;;;;;;2.52;90.66;102095.75;1698437;82;26600;-75
2021/03/02 01:49:23;;;;;;;57.83;33.28;;;;;;;2.56;90.79;102095.98;1677076;83;25842;-75
2021/03/02 01:51:50;;;;;;;58.42;33.48;;;;;;;2.56;90.56;102101.14;1676900;83;25775;-74
2021/03/02 01:54:17;;;;;;;52.03;31.33;;;;;;;2.56;90.73;102084.36;1677097;84;26344;-74
2021/03/02 01:56:43;;;;;;;53.98;33.83;;;;;;;2.55;90.87;102078.83;1678156;83;25806;-72
2021/03/02 01:59:11;;;;;;;54.30;33.60;;;;;;;2.55;91.05;102071.09;1677459;83;25834;-73
2021/03/02 02:01:39;;;;;;;64.07;33.65;;;;;;;2.54;90.98;102066.38;1676585;83;25867;-74
2021/03/02 02:04:25;;;;;;;52.98;29.57;;;;;;;2.56;91.08;102067.59;1675569;83;25836;-74
2021/03/02 02:06:57;;;;;;;55.98;30.70;;;;;;;2.54;91.45;102061.69;1669790;84;26401;-74
2021/03/02 02:09:44;;;;;;;65.22;37.65;;;;;;;2.51;91.53;102061.80;1678800;83;25794;-74
2021/03/02 02:12:23;;;;;;;61.80;33.83;;;;;;;2.52;91.57;102064.32;1701272;82;26457;-73
2021/03/02 02:15:10;;;;;;;66.28;37.28;;;;;;;2.52;91.57;102064.32;1677492;83;25810;-73
2021/03/02 02:17:59;;;;;;;71.87;36.77;;;;;;;2.54;91.88;102058.64;1677510;83;25909;-74
2021/03/02 02:20:46;;;;;;;69.35;36.98;;;;;;;2.54;91.88;102058.64;1678704;83;25811;-72
2021/03/02 02:23:21;;;;;;;70.52;40.70;;;;;;;2.53;92.02;102054.37;1678027;83;25400;-71
2021/03/02 02:26:07;;;;;;;77.97;41.20;;;;;;;2.51;91.90;102048.47;1677493;83;25751;-71
2021/03/02 02:28:37;;;;;;;75.05;42.40;;;;;;;2.52;91.92;102044.97;1678112;83;25886;-73
2021/03/02 02:31:06;;;;;;;77.90;42.53;;;;;;;2.54;92.28;102043.62;1678782;83;25691;-73
2021/03/02 02:33:36;;;;;;;76.80;43.08;;;;;;;2.55;91.94;102038.36;1679171;83;27381;-72
2021/03/02 02:36:06;;;;;;;73.75;41.13;;;;;;;2.56;92.00;102038.73;1678147;83;25870;-70
2021/03/02 02:38:33;;;;;;;80.60;43.23;;;;;;;2.57;92.22;102035.73;1677994;83;25817;-70
2021/03/02 02:41:01;;;;;;;83.82;45.55;;;;;;;2.56;92.27;102028.88;1654089;84;25898;-70
2021/03/02 02:43:28;;;;;;;84.30;46.53;;;;;;;2.59;92.13;102030.02;1668175;84;25890;-70
2021/03/02 02:45:55;;;;;;;69.72;42.45;;;;;;;2.59;92.13;102030.02;1683465;83;25702;-70
2021/03/02 02:48:23;;;;;;;84.42;46.45;;;;;;;2.57;92.36;102018.95;1683644;83;25454;-70
2021/03/02 02:50:53;;;;;;;70.78;38.78;;;;;;;2.58;92.24;102028.36;1683031;83;25788;-71
2021/03/02 02:53:20;;;;;;;76.65;43.85;;;;;;;2.61;92.37;102032.08;1668772;84;26326;-70
2021/03/02 02:55:54;;;;;;;78.10;42.15;;;;;;;2.62;92.34;102041.05;1666430;83;25840;-70
2021/03/02 02:58:25;;;;;;;67.85;37.75;;;;;;;2.61;92.38;102030.79;1683235;83;25978;-70
2021/03/02 03:00:54;;;;;;;60.48;35.33;;;;;;;2.63;92.26;102040.13;1682682;83;26234;-70
2021/03/02 03:03:24;;;;;;;64.53;36.87;;;;;;;2.62;92.60;102035.06;1684036;83;25748;-71
2021/03/02 03:05:55;;;;;;;60.70;34.60;;;;;;;2.60;92.57;102033.83;1668811;84;25866;-70
2021/03/02 03:08:27;;;;;;;66.25;37.53;;;;;;;2.61;92.72;102039.82;1683276;83;25868;-73
2021/03/02 03:10:55;;;;;;;63.10;35.40;;;;;;;2.60;92.64;102039.45;1684057;83;25782;-73
2021/03/02 03:13:24;;;;;;;59.30;32.65;;;;;;;2.64;92.92;102053.87;1666165;83;26321;-73
2021/03/02 03:15:55;;;;;;;66.50;35.70;;;;;;;2.64;92.92;102053.87;1684000;83;25834;-72
2021/03/02 03:18:26;;;;;;;56.30;31.15;;;;;;;2.65;92.72;102052.98;1683417;83;25712;-73
2021/03/02 03:20:57;;;;;;;65.03;36.88;;;;;;;2.65;93.13;102058.14;1669581;84;25815;-70
2021/03/02 03:23:24;;;;;;;62.78;32.98;;;;;;;2.52;92.67;102030.77;1684516;83;25700;-70
2021/03/02 03:25:51;;;;;;;66.97;36.88;;;;;;;2.67;92.89;102052.44;1683469;83;25841;-70
2021/03/02 03:28:21;;;;;;;69.45;37.13;;;;;;;2.67;92.83;102056.30;1683218;83;26254;-70
2021/03/02 03:30:48;;;;;;;;;;;;;;;2.68;92.78;102061.04;1688372;83;25781;-70
2021/03/02 03:33:17;;;;;;;64.75;38.92;;;;;;;2.69;92.90;102060.12;1682744;83;25558;-70
2021/03/02 03:35:44;;;;;;;53.60;29.10;;;;;;;2.71;92.85;102062.19;1689056;83;25875;-70
2021/03/02 03:38:10;;;;;;;56.75;35.17;;;;;;;2.71;92.97;102056.56;1683217;83;25802;-70
2021/03/02 03:40:36;;;;;;;63.33;35.90;;;;;;;2.73;92.96;102050.87;1689074;82;25904;-70
2021/03/02 03:43:03;;;;;;;60.73;35.00;;;;;;;2.74;93.14;102056.87;1714576;81;26414;-70
2021/03/02 03:45:30;;;;;;;59.58;35.28;;;;;;;2.74;93.14;102056.87;1705018;82;25883;-70
2021/03/02 03:47:57;;;;;;;62.88;37.42;;;;;;;2.71;92.91;102037.20;1705736;82;25811;-70
2021/03/02 03:50:23;;;;;;;59.77;35.35;;;;;;;2.77;92.82;102063.18;1681179;82;25783;-70
2021/03/02 03:53:00;;;;;;;54.93;32.08;;;;;;;2.77;92.92;102056.27;1703744;82;25811;-70
2021/03/02 03:55:34;;;;;;;60.10;36.40;;;;;;;2.79;93.00;102064.78;1705087;82;25895;-69
2021/03/02 03:58:01;;;;;;;61.80;34.35;;;;;;;2.80;92.79;102063.86;1704928;82;25698;-70
2021/03/02 04:00:29;;;;;;;65.45;36.50;;;;;;;2.84;92.92;102062.82;1701904;82;25651;-70
2021/03/02 04:02:56;;;;;;;56.85;32.78;;;;;;;2.84;92.92;102062.82;1705893;82;25793;-70
2021/03/02 04:05:23;;;;;;;58.20;35.13;;;;;;;2.87;92.75;102054.92;1705545;82;25683;-70
2021/03/02 04:07:50;;;;;;;65.90;38.10;;;;;;;2.86;92.75;102052.41;1704429;82;25872;-70
2021/03/02 04:10:17;;;;;;;63.40;34.98;;;;;;;2.86;92.64;102039.06;1681183;82;25752;-69
2021/03/02 04:12:47;;;;;;;65.05;38.55;;;;;;;2.88;92.78;102042.38;1705088;82;26466;-70
2021/03/02 04:15:16;;;;;;;63.85;37.83;;;;;;;2.88;92.70;102039.80;1705655;82;26642;-70
2021/03/02 04:17:51;;;;;;;65.83;36.33;;;;;;;2.90;92.74;102034.58;1706264;82;25436;-71
2021/03/02 04:20:18;;;;;;;60.12;35.52;;;;;;;2.91;92.84;102026.37;1704448;82;25821;-69
2021/03/02 04:22:45;;;;;;;69.15;39.67;;;;;;;2.91;92.72;102027.20;1706413;82;25868;-69
2021/03/02 04:25:12;;;;;;;69.22;41.18;;;;;;;2.91;92.85;102018.16;1704686;82;25862;-69
2021/03/02 04:27:40;;;;;;;67.45;39.15;;;;;;;2.99;92.82;102010.05;1704058;82;25812;-69
2021/03/02 04:30:08;;;;;;;66.77;39.58;;;;;;;2.99;92.82;102010.05;1704247;82;25872;-69
2021/03/02 04:32:35;;;;;;;77.27;41.58;;;;;;;2.87;92.71;101992.12;1706434;82;25307;-71
2021/03/02 04:35:02;;;;;;;68.45;37.38;;;;;;;2.99;92.69;102007.46;1707409;82;25859;-71
2021/03/02 04:37:29;;;;;;;74.53;41.98;;;;;;;3.00;92.93;102011.70;1703386;82;25821;-72
2021/03/02 04:39:55;;;;;;;59.40;33.18;;;;;;;2.97;92.62;102005.41;1702642;82;25946;-72
2021/03/02 04:42:21;;;;;;;77.15;41.60;;;;;;;2.97;92.89;102017.02;1704315;82;25505;-69
2021/03/02 04:44:48;;;;;;;69.72;39.55;;;;;;;2.96;92.82;102009.73;1705202;82;25813;-69
2021/03/02 04:47:14;;;;;;;71.12;40.60;;;;;;;2.95;92.91;102005.95;1705930;82;25928;-69
2021/03/02 04:49:40;;;;;;;82.02;42.08;;;;;;;2.95;92.85;101996.92;1701631;82;25978;-69
2021/03/02 04:52:07;;;;;;;74.07;42.43;;;;;;;2.95;92.90;101996.92;1704762;82;25745;-70
2021/03/02 04:54:33;;;;;;;78.28;44.40;;;;;;;2.93;93.11;101995.69;1705437;82;26000;-69
2021/03/02 04:56:59;;;;;;;75.42;41.90;;;;;;;2.95;93.09;102004.66;1705068;82;25888;-69
2021/03/02 04:59:26;;;;;;;78.52;45.33;;;;;;;2.95;93.09;101996.45;1704823;82;25774;-70
2021/03/02 05:01:52;;;;;;;60.85;37.03;;;;;;;2.97;93.00;101998.95;1703465;82;25812;-69
2021/03/02 05:04:18;;;;;;;61.25;36.55;;;;;;;2.99;92.97;101998.42;1704054;82;26486;-70
2021/03/02 05:06:45;;;;;;;60.45;37.55;;;;;;;2.98;93.00;102000.17;1704884;82;25847;-69
2021/03/02 05:09:11;;;;;;;59.45;34.58;;;;;;;2.96;93.06;101989.08;1703945;82;25776;-69
2021/03/02 05:11:38;;;;;;;74.40;40.28;;;;;;;2.95;93.07;101986.59;1703471;82;25384;-69
2021/03/02 05:14:04;;;;;;;60.20;35.10;;;;;;;2.75;92.95;101951.39;1704452;82;25844;-69
2021/03/02 05:16:30;;;;;;;64.50;38.50;;;;;;;2.98;92.97;101987.27;1705676;82;25793;-69
2021/03/02 05:18:57;;;;;;;70.78;40.58;;;;;;;2.97;93.03;101990.73;1704600;82;25923;-69
2021/03/02 05:21:23;;;;;;;67.37;39.65;;;;;;;2.98;93.24;101999.34;1706819;82;25789;-69
2021/03/02 05:23:50;;;;;;;61.83;37.75;;;;;;;2.96;93.06;101983.91;1705899;82;25825;-69
2021/03/02 05:26:21;;;;;;;60.80;36.77;;;;;;;2.99;93.20;101985.05;1704297;82;25807;-69
2021/03/02 05:28:49;;;;;;;61.40;36.68;;;;;;;2.98;93.18;101970.94;1704958;82;25796;-69
2021/03/02 05:31:16;;;;;;;59.03;31.97;;;;;;;2.99;93.18;101977.76;1704127;82;25734;-70
2021/03/02 05:33:43;;;;;;;60.15;35.63;;;;;;;2.99;93.32;101977.30;1705821;82;25787;-70
2021/03/02 05:36:09;;;;;;;63.52;36.15;;;;;;;2.98;93.15;101976.10;1705291;82;25712;-70
2021/03/02 05:38:36;;;;;;;64.90;39.80;;;;;;;2.98;93.28;101982.09;1703844;82;25883;-72
2021/03/02 05:41:03;;;;;;;63.23;38.00;;;;;;;2.89;93.25;101966.61;1705275;82;25903;-73
2021/03/02 05:43:30;;;;;;;60.05;33.92;;;;;;;2.95;93.28;101978.38;1706380;82;25768;-74
2021/03/02 05:45:58;;;;;;;58.30;36.35;;;;;;;2.97;93.50;101979.11;1705868;82;25775;-72
2021/03/02 05:48:25;;;;;;;67.45;38.30;;;;;;;2.97;93.33;101975.23;1704441;82;25727;-73
2021/03/02 05:50:53;;;;;;;60.75;35.98;;;;;;;3.01;93.29;101983.69;1694332;82;25865;-73
2021/03/02 05:53:20;;;;;;;48.13;25.82;;;;;;;2.93;93.47;101983.23;1704917;82;25751;-72
2021/03/02 05:55:47;;;;;;;58.52;34.90;;;;;;;2.98;93.62;101987.27;1705273;82;26112;-73
2021/03/02 05:58:17;;;;;;;58.20;34.55;;;;;;;2.91;93.34;101968.27;1704091;82;25729;-73
2021/03/02 06:00:43;;;;;;;64.27;36.42;;;;;;;3.00;93.39;101984.59;1705414;82;25913;-72
2021/03/02 06:03:10;;;;;;;64.60;36.35;;;;;;;2.92;93.43;101975.09;1704177;82;25684;-70
2021/03/02 06:05:37;;;;;;;64.82;36.23;;;;;;;2.98;93.34;101973.52;1702485;82;26231;-72
2021/03/02 06:08:08;;;;;;;61.48;35.68;;;;;;;3.00;93.41;101979.42;1703896;82;27746;-73
2021/03/02 06:10:35;;;;;;;57.17;33.73;;;;;;;3.01;93.35;101984.52;1703732;82;25862;-72
2021/03/02 06:13:03;;;;;;;57.27;30.17;;;;;;;3.02;93.46;101978.44;1703131;82;26278;-72
2021/03/02 06:15:30;;;;;;;61.28;34.20;;;;;;;3.03;93.57;101976.72;1703808;82;25836;-71
2021/03/02 06:18:18;;;;;;;67.97;38.78;;;;;;;3.07;93.04;101979.05;1702053;82;25888;-72
2021/03/02 06:20:45;;;;;;;63.13;36.33;;;;;;;3.08;93.12;101991.50;1702801;82;25941;-72
2021/03/02 06:23:22;;;;;;;60.12;33.28;;;;;;;3.08;93.12;101991.50;1704205;82;26126;-72
2021/03/02 06:25:48;;;;;;;64.30;34.08;;;;;;;3.06;93.62;101977.84;1704547;82;25353;-70
2021/03/02 06:28:39;;;;;;;64.03;35.10;;;;;;;3.06;93.62;101977.84;1702485;82;25737;-70
2021/03/02 06:31:08;;;;;;;64.10;35.63;;;;;;;3.06;93.36;101990.30;1702920;82;25813;-70
2021/03/02 06:33:34;;;;;;;62.15;36.60;;;;;;;3.07;93.29;101993.72;1703082;82;25395;-70
2021/03/02 06:36:01;;;;;;;57.85;34.90;;;;;;;3.08;93.21;102000.11;1702183;82;26636;-72
2021/03/02 06:38:32;;;;;;;68.78;35.65;;;;;;;3.08;93.29;101987.62;1702226;82;25718;-72
2021/03/02 06:41:00;;;;;;;67.75;36.58;;;;;;;3.07;93.25;101991.96;1703713;82;25649;-72
2021/03/02 06:43:38;;;;;;;68.35;40.28;;;;;;;3.06;93.32;101983.84;1684342;82;25533;-72
2021/03/02 06:46:10;;;;;;;61.58;31.42;;;;;;;2.96;93.45;101968.87;1685346;82;25777;-72
2021/03/02 06:48:58;;;;;;;71.17;38.15;;;;;;;2.96;93.45;101968.87;1654697;84;25604;-72
2021/03/02 06:51:34;;;;;;;73.78;38.48;;;;;;;2.99;93.34;101968.27;1683939;82;25824;-72
2021/03/02 06:54:17;;;;;;;70.00;36.50;;;;;;;3.11;93.43;101980.58;1682493;82;25747;-72
2021/03/02 06:56:44;;;;;;;83.27;43.60;;;;;;;3.13;93.46;101979.20;1672036;84;25837;-72
2021/03/02 06:59:18;;;;;;;77.40;42.67;;;;;;;3.15;93.37;101968.80;1682236;82;25852;-73
2021/03/02 07:01:48;;;;;;;76.22;41.50;;;;;;;3.17;93.31;101971.69;1672591;84;25907;-70
2021/03/02 07:04:20;;;;;;;71.02;41.35;;;;;;;3.16;93.23;101968.70;1710043;81;26443;-70
2021/03/02 07:06:51;;;;;;;71.40;38.25;;;;;;;3.15;93.15;101959.75;1708311;81;25673;-70
2021/03/02 07:09:16;;;;;;;62.78;32.60;;;;;;;3.12;93.25;101954.28;1707393;81;25939;-70
2021/03/02 07:11:43;;;;;;;66.77;38.50;;;;;;;3.12;93.30;101952.99;1704920;81;25777;-70
2021/03/02 07:14:13;;;;;;;71.62;38.80;;;;;;;3.11;93.25;101950.05;1702631;81;25961;-70
2021/03/02 07:16:45;;;;;;;72.63;39.60;;;;;;;3.15;93.51;101939.09;1644372;85;25852;-72
2021/03/02 07:19:20;;;;;;;79.77;45.67;;;;;;;3.15;93.51;101939.09;1707348;81;25883;-72
2021/03/02 07:21:56;;;;;;;73.20;40.48;;;;;;;3.16;93.31;101946.75;1707247;81;25744;-72
2021/03/02 07:24:26;;;;;;;74.55;39.73;;;;;;;3.16;93.30;101945.91;1705041;81;25976;-72
2021/03/02 07:26:57;;;;;;;;;;;;;;;3.15;93.20;101946.38;1705251;81;26462;-69
2021/03/02 07:29:24;;;;;;;68.12;36.40;;;;;;;3.18;93.19;101944.92;1707512;81;25614;-70
2021/03/02 07:31:50;;;;;;;74.07;35.83;;;;;;;3.18;93.31;101945.39;1706520;81;26281;-71
2021/03/02 07:34:17;;;;;;;68.25;35.30;;;;;;;3.17;93.30;101957.94;1706211;81;25725;-71
2021/03/02 07:36:44;;;;;;;67.15;38.45;;;;;;;3.18;93.29;101950.55;1710043;81;25719;-70
2021/03/02 07:39:21;;;;;;;63.52;35.28;;;;;;;3.20;93.26;101972.82;1706940;81;25823;-71
2021/03/02 07:41:51;;;;;;;63.63;36.68;;;;;;;3.22;93.35;101955.93;1706139;81;26433;-70
2021/03/02 07:44:19;;;;;;;60.33;31.67;;;;;;;3.24;92.95;101964.45;1672230;84;25855;-72
2021/03/02 07:46:53;;;;;;;66.02;38.00;;;;;;;3.28;93.30;101969.85;1671923;84;25855;-72
2021/03/02 07:49:28;;;;;;;68.97;37.50;;;;;;;3.28;93.18;101974.56;1665782;84;25891;-72
2021/03/02 07:52:08;;;;;;;68.30;38.15;;;;;;;3.31;93.20;101986.03;1667932;84;26467;-71
2021/03/02 07:54:34;;;;;;;68.12;36.60;;;;;;;3.33;93.21;101988.55;1666942;84;25357;-72
2021/03/02 07:57:21;;;;;;;63.45;35.60;;;;;;;3.34;93.21;101997.50;1669727;84;26472;-73
2021/03/02 08:00:21;;;;;;;73.30;36.55;;;;;;;3.33;93.15;101994.55;1672016;84;26655;-74
2021/03/02 08:03:24;;;;;;;72.45;37.95;;;;;;;3.37;93.04;101985.34;1670844;84;25797;-73
2021/03/02 08:06:04;;;;;;;69.77;37.30;;;;;;;3.39;93.03;101975.30;1672256;84;25851;-73
2021/03/02 08:08:32;;;;;;;58.85;34.30;;;;;;;3.48;93.06;101972.70;1643208;84;43374;-74
2021/03/02 08:11:03;;;;;;;67.40;35.10;;;;;;;3.52;92.92;101977.64;1672216;84;26477;-74
2021/03/02 08:13:40;;;;;;;64.03;36.55;;;;;;;3.54;92.73;101965.91;1673602;84;25425;-73
2021/03/02 08:16:09;;;;;;;64.95;35.35;;;;;;;3.52;92.52;101964.72;1674747;84;25962;-74
2021/03/02 08:18:37;;;;;;;61.05;33.80;;;;;;;3.57;92.59;101963.16;1672533;84;25359;-76
2021/03/02 08:21:16;;;;;;;61.65;35.78;;;;;;;3.60;92.44;101961.73;1675362;84;26532;-75
2021/03/02 08:23:53;;;;;;;55.43;29.42;;;;;;;3.63;92.25;101969.33;1672913;84;26420;-76
2021/03/02 08:26:33;;;;;;;68.28;36.75;;;;;;;3.65;92.19;101980.41;1671709;84;25776;-74
2021/03/02 08:29:15;;;;;;;65.32;34.20;;;;;;;3.69;92.15;101981.93;1670638;84;26235;-72
2021/03/02 08:31:47;;;;;;;66.45;35.30;;;;;;;3.69;91.90;101987.10;1673637;84;25796;-73
2021/03/02 08:34:18;;;;;;;68.15;38.25;;;;;;;3.72;91.93;101979.64;1647138;84;25838;-71
2021/03/02 08:36:53;;;;;;;68.05;38.33;;;;;;;3.73;91.87;101967.08;1667604;84;26169;-71
2021/03/02 08:39:21;;;;;;;66.67;36.38;;;;;;;3.76;91.66;101945.80;1674022;84;25831;-73
2021/03/02 08:41:49;;;;;;;65.57;33.90;;;;;;;3.77;91.39;101973.31;1669907;84;25809;-73
2021/03/02 08:44:22;;;;;;;62.93;31.65;;;;;;;3.78;91.33;101973.67;1645664;84;25805;-72
2021/03/02 08:46:52;;;;;;;67.10;37.10;;;;;;;3.81;91.18;101967.52;1644898;84;25833;-73
2021/03/02 08:49:19;;;;;;;69.37;35.78;;;;;;;3.85;91.06;101985.02;1672070;84;25738;-74
2021/03/02 08:51:46;;;;;;;65.90;37.15;;;;;;;3.88;91.04;101976.63;1672535;84;25840;-72
2021/03/02 08:54:12;;;;;;;57.62;32.78;;;;;;;3.96;90.96;101996.92;1672483;84;25771;-73
2021/03/02 08:56:38;;;;;;;65.42;36.38;;;;;;;3.97;90.60;102002.45;1655315;84;25860;-73
2021/03/02 08:59:22;;;;;;;57.35;33.18;;;;;;;4.03;90.81;101996.95;1671282;84;25909;-73
2021/03/02 09:01:54;;;;;;;67.30;39.27;;;;;;;4.09;90.67;102000.95;1668138;84;25747;-70
2021/03/02 09:04:22;;;;;;;69.95;38.85;;;;;;;4.10;90.52;101993.13;1667027;84;25785;-74
2021/03/02 09:06:51;;;;;;;60.40;33.50;;;;;;;4.16;90.51;101998.42;1671806;84;25797;-72
2021/03/02 09:09:24;;;;;;;60.57;34.87;;;;;;;4.20;90.49;101998.63;1673288;84;25399;-73
2021/03/02 09:11:57;;;;;;;61.68;33.83;;;;;;;4.21;89.98;101995.97;1647016;84;25817;-73
2021/03/02 09:14:36;;;;;;;65.12;36.65;;;;;;;4.18;89.61;102001.77;1674282;84;25803;-72
2021/03/02 09:17:06;;;;;;;56.88;31.33;;;;;;;4.17;89.74;102011.30;1673225;84;26587;-72
2021/03/02 09:19:39;;;;;;;62.70;34.35;;;;;;;4.20;89.56;102007.25;1671713;84;32939;-72
2021/03/02 09:22:13;;;;;;;58.28;31.10;;;;;;;4.27;89.48;102014.67;1669468;84;25851;-73
2021/03/02 09:24:44;;;;;;;57.00;31.27;;;;;;;4.32;89.30;102013.97;1673489;84;25818;-71
2021/03/02 09:27:15;;;;;;;60.58;33.92;;;;;;;4.37;89.09;102017.14;1674269;84;25801;-72
2021/03/02 09:29:48;;;;;;;56.42;32.42;;;;;;;4.42;89.40;102019.02;1673128;84;25857;-70
2021/03/02 09:32:37;;;;;;;58.20;31.55;;;;;;;4.43;89.07;102016.33;1672864;84;25877;-70
2021/03/02 09:35:10;;;;;;;58.60;31.68;;;;;;;4.46;88.65;102015.33;1655539;85;25823;-70
2021/03/02 09:37:38;;;;;;;57.30;31.55;;;;;;;4.44;88.16;102020.58;1654432;85;25884;-73
2021/03/02 09:40:15;;;;;;;55.28;30.62;;;;;;;4.49;88.25;102018.21;1652918;85;26317;-73
2021/03/02 09:42:55;;;;;;;62.13;33.30;;;;;;;4.56;88.14;102015.20;1653450;85;26462;-73
2021/03/02 09:45:22;;;;;;;57.13;31.12;;;;;;;4.63;87.75;102020.87;1653604;85;25829;-73
2021/03/02 09:47:58;;;;;;;59.93;34.27;;;;;;;4.66;87.85;102023.28;1654804;85;25813;-72
2021/03/02 09:50:25;;;;;;;64.03;32.55;;;;;;;4.72;88.08;102022.10;1654377;85;25827;-72
2021/03/02 09:52:55;;;;;;;69.65;39.10;;;;;;;4.77;87.74;102017.50;1654565;85;25845;-73
2021/03/02 09:55:28;;;;;;;64.87;34.92;;;;;;;4.78;87.91;102021.31;1654475;85;26544;-74
2021/03/02 09:58:18;;;;;;;64.22;35.20;;;;;;;4.86;87.95;102017.00;1654267;85;25862;-73
2021/03/02 10:00:50;;;;;;;65.50;37.33;;;;;;;4.90;87.61;102018.48;1634108;85;25554;-72
2021/03/02 10:03:25;;;;;;;72.60;36.38;;;;;;;4.94;87.41;102013.52;1655580;85;26478;-73
2021/03/02 10:06:03;;;;;;;58.98;33.98;;;;;;;4.95;87.51;102014.34;1653665;85;25832;-72
2021/03/02 10:08:35;;;;;;;64.75;36.68;;;;;;;4.98;87.37;102013.70;1653150;85;25910;-73
2021/03/02 10:11:15;;;;;;;61.48;35.25;;;;;;;5.06;87.50;102014.56;1653289;85;25791;-73
2021/03/02 10:13:49;;;;;;;63.33;33.67;;;;;;;5.10;86.92;102019.48;1686078;84;25949;-72
2021/03/02 10:16:38;;;;;;;56.18;31.80;;;;;;;5.07;86.42;102017.08;1684199;84;25330;-74
2021/03/02 10:19:19;;;;;;;60.05;31.45;;;;;;;5.12;86.25;102018.09;1658485;84;26152;-71
2021/03/02 10:21:51;;;;;;;62.03;33.88;;;;;;;5.16;85.76;102011.82;1685075;84;25835;-71
2021/03/02 10:24:25;;;;;;;58.83;31.90;;;;;;;5.26;86.45;102006.91;1682034;84;25380;-71
2021/03/02 10:27:14;;;;;;;62.98;33.33;;;;;;;5.32;85.74;102007.41;1681871;84;25367;-71
2021/03/02 10:29:43;;;;;;;62.05;35.48;;;;;;;5.32;85.26;102000.92;1681556;84;26200;-75
2021/03/02 10:32:10;;;;;;;57.62;32.75;;;;;;;5.41;85.86;101993.06;1681410;84;25714;-74
2021/03/02 10:34:37;;;;;;;53.48;30.80;;;;;;;5.54;85.28;101981.03;1685119;83;25791;-73
2021/03/02 10:37:06;;;;;;;61.08;33.05;;;;;;;5.63;84.68;101989.19;1687186;84;25749;-75
2021/03/02 10:39:33;;;;;;;59.42;34.20;;;;;;;5.60;83.37;101976.41;1681088;84;25859;-75
2021/03/02 10:42:00;;;;;;;58.25;31.73;;;;;;;5.58;83.78;101977.78;1684161;84;26591;-75
2021/03/02 10:44:27;;;;;;;59.48;32.33;;;;;;;5.65;83.71;101984.28;1686351;84;25877;-75
2021/03/02 10:46:53;;;;;;;61.70;32.25;;;;;;;5.74;84.21;101972.04;1684453;84;25855;-75
2021/03/02 10:49:21;;;;;;;54.70;30.15;;;;;;;5.89;84.62;101974.17;1679325;84;25835;-71
2021/03/02 10:51:51;;;;;;;53.92;30.60;;;;;;;6.08;83.92;101970.45;1682860;84;25794;-71
2021/03/02 10:54:17;;;;;;;51.70;31.33;;;;;;;6.17;83.13;101977.67;1680892;84;26190;-71
2021/03/02 10:56:44;;;;;;;62.43;34.03;;;;;;;6.17;81.78;101990.19;1682097;84;25800;-70
2021/03/02 10:59:11;;;;;;;45.88;25.92;;;;;;;6.12;81.55;101971.47;1678309;84;25815;-74
2021/03/02 11:01:37;;;;;;;51.08;31.82;;;;;;;6.15;81.53;101967.38;1681669;84;26131;-74
2021/03/02 11:04:04;;;;;;;54.80;30.20;;;;;;;6.19;81.81;101964.97;1682770;84;25940;-73
2021/03/02 11:09:06;;;;;;;56.13;28.50;;;;;;;6.40;80.55;101948.94;1762209;79;26574;-73
2021/03/02 11:11:48;;;;;;;50.00;30.08;;;;;;;6.52;81.30;101945.56;1753016;80;26010;-73
2021/03/02 11:14:15;;;;;;;51.05;31.23;;;;;;;6.70;81.56;101947.89;1750785;80;25351;-73
2021/03/02 11:16:45;;;;;;;50.50;29.00;;;;;;;6.79;81.48;101940.77;1750697;80;25718;-73
2021/03/02 11:19:11;;;;;;;53.55;31.23;;;;;;;6.91;81.10;101939.16;1748993;80;26199;-73
2021/03/02 11:21:38;;;;;;;53.45;30.40;;;;;;;6.95;80.93;101934.09;1749503;80;25680;-73
2021/03/02 11:24:05;;;;;;;50.67;27.32;;;;;;;6.97;80.87;101930.47;1748747;80;25471;-73
2021/03/02 11:26:32;;;;;;;49.23;29.63;;;;;;;7.06;79.90;101935.03;1746430;80;25460;-73
2021/03/02 11:28:58;;;;;;;46.28;26.62;;;;;;;7.10;79.88;101916.19;1748234;80;25712;-73
2021/03/02 11:31:25;;;;;;;45.10;27.20;;;;;;;7.23;79.75;101918.77;1746956;80;25696;-73
2021/03/02 11:33:51;;;;;;;49.65;27.60;;;;;;;7.32;80.02;101911.17;1750452;80;26348;-73